createdAt,value
2023-04-28T00:00:07.843Z,1.20
2023-04-28T00:02:37.356Z,1.31
2023-04-28T00:05:06.360Z,1.15
2023-04-28T00:07:34.659Z,1.03
2023-04-28T00:10:02.904Z,1.17
2023-04-28T00:12:31.080Z,1.12
2023-04-28T00:14:59.256Z,1.10
2023-04-28T00:17:27.635Z,0.85
2023-04-28T00:19:57.685Z,1.12
2023-04-28T00:22:26.018Z,1.18
2023-04-28T00:24:54.436Z,1.04
2023-04-28T00:27:22.573Z,0.87
2023-04-28T00:29:50.737Z,0.94
2023-04-28T00:32:19.580Z,0.87
2023-04-28T00:34:47.762Z,0.86
2023-04-28T00:37:17.240Z,0.79
2023-04-28T00:39:47.232Z,0.82
2023-04-28T00:42:16.331Z,0.78
2023-04-28T00:44:44.516Z,0.79
2023-04-28T00:47:12.795Z,0.73
2023-04-28T00:49:40.989Z,0.70
2023-04-28T00:52:09.250Z,0.73
2023-04-28T00:54:38.862Z,0.73
2023-04-28T00:57:07.203Z,0.80
2023-04-28T00:59:35.365Z,0.69
2023-04-28T01:02:04.787Z,0.57
2023-04-28T01:04:34.579Z,0.72
2023-04-28T01:07:04.006Z,0.69
2023-04-28T01:09:32.179Z,0.64
2023-04-28T01:12:01.892Z,0.45
2023-04-28T01:14:39.905Z,0.51
2023-04-28T01:17:09.477Z,0.44
2023-04-28T01:19:37.643Z,0.47
2023-04-28T01:22:06.342Z,0.33
2023-04-28T01:24:35.863Z,0.57
2023-04-28T01:27:07.789Z,0.57
2023-04-28T01:29:36.032Z,0.51
2023-04-28T01:32:05.109Z,0.44
2023-04-28T01:34:34.944Z,0.43
2023-04-28T01:37:03.146Z,0.48
2023-04-28T01:39:31.348Z,0.40
2023-04-28T01:42:02.197Z,0.43
2023-04-28T01:44:30.353Z,0.39
2023-04-28T01:46:58.638Z,0.42
2023-04-28T01:49:26.835Z,0.41
2023-04-28T01:51:54.997Z,0.42
2023-04-28T01:54:23.175Z,0.31
2023-04-28T01:56:51.373Z,0.41
2023-04-28T01:59:23.195Z,0.31
2023-04-28T02:01:51.755Z,0.18
2023-04-28T02:04:20.366Z,0.25
2023-04-28T02:06:48.626Z,0.20
2023-04-28T02:09:16.795Z,0.13
2023-04-28T02:11:45.300Z,0.26
2023-04-28T02:14:13.743Z,0.28
2023-04-28T02:16:43.739Z,0.27
2023-04-28T02:19:13.073Z,0.19
2023-04-28T02:21:42.750Z,0.31
2023-04-28T02:24:10.892Z,0.29
2023-04-28T02:26:39.043Z,0.27
2023-04-28T02:29:07.552Z,0.30
2023-04-28T02:31:36.124Z,0.20
2023-04-28T02:34:05.767Z,0.21
2023-04-28T02:36:34.037Z,0.17
2023-04-28T02:39:02.370Z,0.24
2023-04-28T02:41:31.689Z,0.27
2023-04-28T02:43:59.977Z,0.22
2023-04-28T02:46:28.189Z,0.25
2023-04-28T02:48:56.438Z,0.27
2023-04-28T02:51:26.769Z,0.28
2023-04-28T02:53:54.968Z,0.29
2023-04-28T02:56:24.486Z,0.26
2023-04-28T02:58:52.711Z,0.26
2023-04-28T03:01:20.930Z,0.18
2023-04-28T03:03:49.749Z,0.24
2023-04-28T03:06:18.187Z,0.15
2023-04-28T03:08:47.627Z,0.14
2023-04-28T03:11:15.801Z,0.17
2023-04-28T03:13:44.554Z,0.15
2023-04-28T03:16:12.749Z,0.11
2023-04-28T03:18:41.147Z,0.15
2023-04-28T03:21:09.381Z,0.19
2023-04-28T03:23:37.509Z,0.11
2023-04-28T03:26:07.708Z,0.13
2023-04-28T03:28:35.910Z,0.10
2023-04-28T03:31:04.551Z,0.17
2023-04-28T03:33:32.756Z,0.10
2023-04-28T03:36:01.816Z,0.07
2023-04-28T03:38:30.323Z,0.06
2023-04-28T03:40:58.508Z,0.19
2023-04-28T03:43:35.403Z,0.08
2023-04-28T03:46:12.785Z,-0.02
2023-04-28T03:48:41.336Z,0.02
2023-04-28T03:51:09.531Z,0.12
2023-04-28T03:53:37.827Z,0.13
2023-04-28T03:56:07.269Z,0.14
2023-04-28T03:58:36.914Z,0.15
2023-04-28T04:01:05.685Z,0.16
2023-04-28T04:03:34.103Z,0.16
2023-04-28T04:06:02.953Z,0.29
2023-04-28T04:08:32.287Z,0.19
2023-04-28T04:11:01.821Z,0.36
2023-04-28T04:13:30.047Z,0.30
2023-04-28T04:15:59.696Z,0.25
2023-04-28T04:18:28.596Z,0.36
2023-04-28T04:21:15.102Z,0.39
2023-04-28T04:23:43.331Z,0.53
2023-04-28T04:26:11.502Z,0.72
2023-04-28T04:28:40.955Z,0.70
2023-04-28T04:31:12.763Z,0.66
2023-04-28T04:33:41.222Z,0.72
2023-04-28T04:36:09.845Z,0.80
2023-04-28T04:38:38.157Z,0.72
2023-04-28T04:41:14.396Z,0.83
2023-04-28T04:43:42.813Z,0.71
2023-04-28T04:46:12.322Z,0.57
2023-04-28T04:48:40.609Z,0.62
2023-04-28T04:51:08.883Z,0.69
2023-04-28T04:53:37.148Z,0.66
2023-04-28T04:56:06.682Z,1.04
2023-04-28T04:58:37.857Z,1.40
2023-04-28T05:01:25.818Z,1.67
2023-04-28T05:03:54.598Z,1.95
2023-04-28T05:06:22.923Z,2.15
2023-04-28T05:08:51.072Z,2.39
2023-04-28T05:11:19.792Z,2.56
2023-04-28T05:13:48.347Z,2.22
2023-04-28T05:16:16.817Z,2.16
2023-04-28T05:19:06.508Z,2.54
2023-04-28T05:21:34.864Z,2.75
2023-04-28T05:24:03.753Z,2.84
2023-04-28T05:26:32.031Z,3.03
2023-04-28T05:29:06.364Z,2.96
2023-04-28T05:31:34.749Z,3.38
2023-04-28T05:34:03.061Z,3.66
2023-04-28T05:36:33.006Z,3.69
2023-04-28T05:39:01.817Z,3.95
2023-04-28T05:41:30.047Z,4.17
2023-04-28T05:43:58.246Z,4.58
2023-04-28T05:46:30.809Z,4.72
2023-04-28T05:49:00.886Z,5.01
2023-04-28T05:51:35.433Z,5.11
2023-04-28T05:54:04.163Z,5.49
2023-04-28T05:56:36.870Z,5.38
2023-04-28T05:59:05.293Z,5.14
2023-04-28T06:01:33.740Z,5.25
2023-04-28T06:04:02.268Z,5.42
2023-04-28T06:06:32.192Z,5.81
2023-04-28T06:09:04.445Z,6.37
2023-04-28T06:11:34.515Z,6.40
2023-04-28T06:14:02.699Z,6.44
2023-04-28T06:16:30.993Z,6.86
2023-04-28T06:18:59.244Z,7.52
2023-04-28T06:21:28.763Z,7.77
2023-04-28T06:23:58.219Z,7.96
2023-04-28T06:26:27.792Z,8.39
2023-04-28T06:28:56.428Z,8.71
2023-04-28T06:31:24.644Z,8.68
2023-04-28T06:33:55.286Z,8.99
2023-04-28T06:36:24.547Z,9.12
2023-04-28T06:38:52.839Z,9.46
2023-04-28T06:41:21.279Z,9.87
2023-04-28T06:43:53.386Z,9.55
2023-04-28T06:46:26.020Z,9.71
2023-04-28T06:48:54.592Z,9.52
2023-04-28T06:51:22.866Z,9.54
2023-04-28T06:53:53.059Z,9.74
2023-04-28T06:56:21.382Z,9.90
2023-04-28T06:58:49.773Z,9.90
2023-04-28T07:01:19.446Z,10.16
2023-04-28T07:03:47.747Z,10.17
2023-04-28T07:06:16.619Z,10.40
2023-04-28T07:08:45.039Z,9.95
2023-04-28T07:11:13.242Z,10.25
2023-04-28T07:13:41.408Z,10.44
2023-04-28T07:16:10.342Z,10.37
2023-04-28T07:18:40.173Z,10.20
2023-04-28T07:21:08.312Z,10.43
2023-04-28T07:23:38.729Z,10.90
2023-04-28T07:26:07.116Z,10.93
2023-04-28T07:28:35.777Z,10.59
2023-04-28T07:31:04.013Z,10.69
2023-04-28T07:33:32.236Z,10.95
2023-04-28T07:36:02.074Z,11.38
2023-04-28T07:38:30.390Z,11.61
2023-04-28T07:40:58.596Z,11.28
2023-04-28T07:43:26.751Z,10.99
2023-04-28T07:45:55.051Z,11.65
2023-04-28T07:48:23.415Z,11.30
2023-04-28T07:50:51.593Z,11.67
2023-04-28T07:53:21.155Z,11.45
2023-04-28T07:55:49.346Z,11.46
2023-04-28T07:58:17.615Z,11.78
2023-04-28T08:00:46.314Z,11.81
2023-04-28T08:03:14.611Z,11.97
2023-04-28T08:05:45.039Z,12.14
2023-04-28T08:08:13.303Z,12.30
2023-04-28T08:10:43.837Z,12.36
2023-04-28T08:13:12.102Z,12.62
2023-04-28T08:15:40.311Z,12.42
2023-04-28T08:18:08.769Z,12.41
2023-04-28T08:20:36.973Z,12.72
2023-04-28T08:23:05.150Z,12.49
2023-04-28T08:25:33.479Z,12.01
2023-04-28T08:28:03.655Z,12.49
2023-04-28T08:30:31.801Z,12.52
2023-04-28T08:32:59.967Z,12.53
2023-04-28T08:35:28.334Z,12.65
2023-04-28T08:37:57.140Z,13.10
2023-04-28T08:40:26.887Z,12.98
2023-04-28T08:42:56.529Z,13.16
2023-04-28T08:45:28.353Z,12.90
2023-04-28T08:47:57.831Z,12.91
2023-04-28T08:50:28.726Z,12.92
2023-04-28T08:52:57.843Z,12.57
2023-04-28T08:55:27.933Z,12.63
2023-04-28T08:57:57.466Z,12.68
2023-04-28T09:00:27.201Z,12.77
2023-04-28T09:02:55.417Z,13.08
2023-04-28T09:05:24.522Z,13.42
2023-04-28T09:07:52.932Z,13.61
2023-04-28T09:10:23.238Z,13.45
2023-04-28T09:12:54.538Z,13.79
2023-04-28T09:15:33.794Z,14.05
2023-04-28T09:18:03.796Z,13.82
2023-04-28T09:20:33.668Z,13.73
2023-04-28T09:23:15.995Z,13.59
2023-04-28T09:25:58.418Z,13.92
2023-04-28T09:28:26.873Z,13.26
2023-04-28T09:30:57.072Z,13.66
2023-04-28T09:33:25.755Z,13.61
2023-04-28T09:35:54.652Z,13.54
2023-04-28T09:38:24.340Z,14.14
2023-04-28T09:40:58.310Z,14.29
2023-04-28T09:43:28.431Z,14.25
2023-04-28T09:45:59.619Z,14.05
2023-04-28T09:48:31.919Z,14.61
2023-04-28T09:51:00.808Z,14.49
2023-04-28T09:53:30.038Z,14.96
2023-04-28T09:55:59.850Z,14.77
2023-04-28T09:58:30.011Z,14.78
2023-04-28T10:01:01.806Z,14.81
2023-04-28T10:03:32.149Z,14.25
2023-04-28T10:06:00.795Z,14.12
2023-04-28T10:08:29.512Z,14.35
2023-04-28T10:10:58.553Z,14.38
2023-04-28T10:13:27.014Z,14.07
2023-04-28T10:15:58.183Z,14.59
2023-04-28T10:18:30.304Z,14.62
2023-04-28T10:21:03.162Z,14.36
2023-04-28T10:23:50.159Z,14.69
2023-04-28T10:26:19.871Z,14.65
2023-04-28T10:28:48.929Z,14.60
2023-04-28T10:31:18.726Z,14.88
2023-04-28T10:33:49.540Z,14.95
2023-04-28T10:36:49.149Z,15.34
2023-04-28T10:39:17.902Z,14.97
2023-04-28T10:41:47.160Z,15.31
2023-04-28T10:44:43.003Z,14.91
2023-04-28T10:47:11.932Z,14.75
2023-04-28T10:50:12.433Z,15.34
2023-04-28T10:52:50.425Z,15.44
2023-04-28T10:55:32.155Z,15.44
2023-04-28T10:58:41.812Z,15.44
2023-04-28T11:01:26.129Z,15.96
2023-04-28T11:04:01.098Z,15.90
2023-04-28T11:06:32.547Z,16.08
2023-04-28T11:09:02.456Z,15.94
2023-04-28T11:11:34.830Z,16.29
2023-04-28T11:14:33.328Z,16.23
2023-04-28T11:17:03.159Z,15.92
2023-04-28T11:19:33.218Z,16.22
2023-04-28T11:22:05.114Z,16.38
2023-04-28T11:24:33.336Z,16.70
2023-04-28T11:27:02.244Z,16.71
2023-04-28T11:29:35.232Z,16.11
2023-04-28T11:32:04.139Z,15.94
2023-04-28T11:34:32.744Z,15.89
2023-04-28T11:37:03.083Z,15.92
2023-04-28T11:39:33.387Z,15.85
2023-04-28T11:42:04.185Z,16.11
2023-04-28T11:44:32.902Z,16.39
2023-04-28T11:47:03.051Z,16.70
2023-04-28T11:49:33.896Z,16.73
2023-04-28T11:52:07.668Z,17.20
2023-04-28T11:54:36.126Z,17.73
2023-04-28T11:57:05.173Z,17.64
2023-04-28T11:59:34.724Z,16.74
2023-04-28T12:02:04.429Z,17.24
2023-04-28T12:04:35.838Z,16.99
2023-04-28T12:07:07.529Z,16.97
2023-04-28T12:09:36.274Z,16.63
2023-04-28T12:12:06.029Z,17.11
2023-04-28T12:14:54.389Z,17.16
2023-04-28T12:17:26.589Z,17.14
2023-04-28T12:19:55.280Z,16.73
2023-04-28T12:22:25.500Z,16.94
2023-04-28T12:25:08.278Z,17.19
2023-04-28T12:27:39.159Z,16.88
2023-04-28T12:30:25.871Z,17.10
2023-04-28T12:32:55.858Z,16.78
2023-04-28T12:35:24.755Z,16.70
2023-04-28T12:37:55.302Z,16.26
2023-04-28T12:40:24.624Z,16.28
2023-04-28T12:42:52.882Z,16.56
2023-04-28T12:45:21.127Z,16.49
2023-04-28T12:47:49.325Z,16.74
2023-04-28T12:50:17.563Z,16.62
2023-04-28T12:52:45.754Z,16.35
2023-04-28T12:55:15.280Z,16.59
2023-04-28T12:57:43.470Z,17.06
2023-04-28T13:00:16.657Z,16.59
2023-04-28T13:02:45.461Z,16.36
2023-04-28T13:05:14.372Z,16.49
2023-04-28T13:07:42.888Z,16.34
2023-04-28T13:10:12.857Z,16.51
2023-04-28T13:12:42.606Z,16.40
2023-04-28T13:15:12.272Z,16.51
2023-04-28T13:17:40.721Z,16.99
2023-04-28T13:20:10.621Z,17.08
2023-04-28T13:22:38.779Z,16.63
2023-04-28T13:25:07.761Z,16.52
2023-04-28T13:27:37.456Z,16.73
2023-04-28T13:30:08.955Z,16.39
2023-04-28T13:32:37.536Z,16.45
2023-04-28T13:35:06.796Z,16.57
2023-04-28T13:37:35.358Z,16.57
2023-04-28T13:40:04.444Z,16.11
2023-04-28T13:42:33.146Z,16.19
2023-04-28T13:45:01.344Z,16.17
2023-04-28T13:47:32.556Z,16.29
2023-04-28T13:50:01.142Z,16.07
2023-04-28T13:52:29.295Z,15.93
2023-04-28T13:54:57.489Z,15.90
2023-04-28T13:57:25.677Z,16.24
2023-04-28T13:59:53.968Z,16.12
2023-04-28T14:02:22.357Z,16.01
2023-04-28T14:04:52.855Z,16.13
2023-04-28T14:07:21.374Z,16.26
2023-04-28T14:09:50.481Z,16.61
2023-04-28T14:12:18.751Z,16.51
2023-04-28T14:14:48.891Z,16.64
2023-04-28T14:17:17.306Z,16.70
2023-04-28T14:19:45.638Z,16.65
2023-04-28T14:22:15.178Z,16.31
2023-04-28T14:24:43.989Z,15.95
2023-04-28T14:27:12.279Z,15.94
2023-04-28T14:29:42.087Z,15.91
2023-04-28T14:32:10.297Z,15.83
2023-04-28T14:34:38.468Z,15.80
2023-04-28T14:37:06.957Z,15.66
2023-04-28T14:39:39.878Z,15.67
2023-04-28T14:42:08.296Z,15.57
2023-04-28T14:44:37.194Z,15.95
2023-04-28T14:47:05.556Z,15.62
2023-04-28T14:49:34.170Z,15.62
2023-04-28T14:52:02.467Z,15.60
2023-04-28T14:54:30.618Z,15.73
2023-04-28T14:57:00.132Z,15.65
2023-04-28T14:59:28.546Z,15.74
2023-04-28T15:01:56.866Z,15.93
2023-04-28T15:04:29.580Z,16.11
2023-04-28T15:06:59.203Z,15.83
2023-04-28T15:09:27.431Z,15.79
2023-04-28T15:11:55.564Z,15.68
2023-04-28T15:14:25.077Z,15.92
2023-04-28T15:16:53.900Z,15.90
2023-04-28T15:19:22.188Z,15.73
2023-04-28T15:21:50.378Z,15.30
2023-04-28T15:24:21.641Z,15.50
2023-04-28T15:26:49.952Z,15.53
2023-04-28T15:29:18.952Z,15.46
2023-04-28T15:31:48.441Z,15.46
2023-04-28T15:34:16.757Z,15.34
2023-04-28T15:36:44.963Z,15.32
2023-04-28T15:39:13.573Z,15.30
2023-04-28T15:41:41.931Z,15.59
2023-04-28T15:44:10.550Z,15.36
2023-04-28T15:46:38.909Z,15.12
2023-04-28T15:49:09.854Z,15.05
2023-04-28T15:51:38.254Z,14.96
2023-04-28T15:54:06.595Z,14.89
2023-04-28T15:56:35.093Z,14.87
2023-04-28T15:59:04.332Z,14.83
2023-04-28T16:01:32.515Z,14.73
2023-04-28T16:04:01.353Z,14.70
2023-04-28T16:06:32.453Z,14.69
2023-04-28T16:09:00.865Z,14.71
2023-04-28T16:11:29.702Z,14.75
2023-04-28T16:13:57.879Z,14.84
2023-04-28T16:16:26.220Z,15.03
2023-04-28T16:18:55.016Z,14.95
2023-04-28T16:21:23.611Z,15.15
2023-04-28T16:23:53.156Z,15.04
2023-04-28T16:26:22.068Z,14.90
2023-04-28T16:28:50.679Z,14.88
2023-04-28T16:31:18.843Z,14.76
2023-04-28T16:33:47.039Z,14.78
2023-04-28T16:36:15.206Z,14.80
2023-04-28T16:38:45.622Z,14.83
2023-04-28T16:41:16.666Z,14.65
2023-04-28T16:43:44.852Z,14.63
2023-04-28T16:46:13.113Z,14.64
2023-04-28T16:48:42.105Z,14.57
2023-04-28T16:51:10.808Z,14.45
2023-04-28T16:53:39.166Z,14.48
2023-04-28T16:56:09.774Z,14.30
2023-04-28T16:58:40.522Z,14.29
2023-04-28T17:01:08.870Z,14.19
2023-04-28T17:03:41.778Z,14.18
2023-04-28T17:06:11.089Z,14.14
2023-04-28T17:08:40.173Z,14.08
2023-04-28T17:11:09.212Z,13.95
2023-04-28T17:13:37.750Z,13.91
2023-04-28T17:16:07.788Z,13.92
2023-04-28T17:18:36.665Z,13.74
2023-04-28T17:21:05.522Z,13.75
2023-04-28T17:23:33.681Z,13.66
2023-04-28T17:26:03.305Z,13.56
2023-04-28T17:28:32.755Z,13.61
2023-04-28T17:31:03.652Z,13.67
2023-04-28T17:33:33.244Z,13.47
2023-04-28T17:36:03.412Z,13.46
2023-04-28T17:38:32.428Z,13.33
2023-04-28T17:41:01.390Z,13.43
2023-04-28T17:43:29.811Z,13.28
2023-04-28T17:45:58.054Z,13.23
2023-04-28T17:48:26.378Z,13.20
2023-04-28T17:50:56.089Z,13.16
2023-04-28T17:53:24.884Z,13.11
2023-04-28T17:55:53.123Z,13.08
2023-04-28T17:58:22.348Z,13.10
2023-04-28T18:00:50.809Z,13.02
2023-04-28T18:03:19.069Z,13.02
2023-04-28T18:05:47.599Z,12.83
2023-04-28T18:08:17.130Z,12.78
2023-04-28T18:10:45.311Z,12.88
2023-04-28T18:13:13.467Z,12.79
2023-04-28T18:15:41.997Z,12.67
2023-04-28T18:18:11.072Z,12.68
2023-04-28T18:20:39.311Z,12.70
2023-04-28T18:23:07.997Z,12.57
2023-04-28T18:25:37.739Z,12.27
2023-04-28T18:28:08.009Z,12.38
2023-04-28T18:30:37.867Z,12.42
2023-04-28T18:33:07.871Z,12.49
2023-04-28T18:35:36.767Z,12.45
2023-04-28T18:38:06.013Z,12.29
2023-04-28T18:40:34.741Z,12.29
2023-04-28T18:43:04.278Z,12.28
2023-04-28T18:45:34.313Z,12.36
2023-04-28T18:48:03.787Z,12.21
2023-04-28T18:50:32.852Z,12.09
2023-04-28T18:53:02.517Z,12.13
2023-04-28T18:55:30.775Z,12.07
2023-04-28T18:58:01.734Z,12.13
2023-04-28T19:00:32.301Z,12.24
2023-04-28T19:03:01.663Z,12.23
2023-04-28T19:05:31.327Z,12.14
2023-04-28T19:07:59.462Z,12.09
2023-04-28T19:10:27.830Z,12.14
2023-04-28T19:12:57.383Z,12.06
2023-04-28T19:15:27.511Z,12.03
2023-04-28T19:17:57.226Z,11.93
2023-04-28T19:20:26.094Z,12.10
2023-04-28T19:22:54.398Z,11.83
2023-04-28T19:25:22.525Z,11.63
2023-04-28T19:27:50.662Z,11.74
2023-04-28T19:30:18.951Z,11.55
2023-04-28T19:32:47.180Z,11.33
2023-04-28T19:35:16.652Z,11.44
2023-04-28T19:37:44.808Z,11.34
2023-04-28T19:40:13.828Z,11.33
2023-04-28T19:42:42.030Z,11.21
2023-04-28T19:45:11.196Z,11.16
2023-04-28T19:47:39.525Z,11.12
2023-04-28T19:50:10.123Z,11.11
2023-04-28T19:52:39.779Z,11.19
2023-04-28T19:55:08.769Z,11.09
2023-04-28T19:57:37.249Z,11.30
2023-04-28T20:00:08.151Z,11.29
2023-04-28T20:02:36.480Z,11.18
2023-04-28T20:05:05.842Z,11.30
2023-04-28T20:07:34.109Z,11.28
2023-04-28T20:10:03.688Z,11.24
2023-04-28T20:12:32.814Z,11.04
2023-04-28T20:15:01.014Z,11.23
2023-04-28T20:17:29.215Z,11.19
2023-04-28T20:19:57.573Z,11.09
2023-04-28T20:22:26.372Z,11.00
2023-04-28T20:24:54.681Z,10.98
2023-04-28T20:27:24.266Z,11.17
2023-04-28T20:29:53.632Z,11.16
2023-04-28T20:32:21.791Z,11.23
2023-04-28T20:34:50.049Z,11.11
2023-04-28T20:37:20.818Z,11.20
2023-04-28T20:39:50.514Z,11.24
2023-04-28T20:42:18.863Z,11.36
2023-04-28T20:44:48.378Z,11.40
2023-04-28T20:47:16.610Z,11.39
2023-04-28T20:49:44.881Z,11.09
2023-04-28T20:52:13.046Z,11.21
2023-04-28T20:54:43.579Z,11.20
2023-04-28T20:57:12.325Z,11.12
2023-04-28T20:59:40.556Z,11.10
2023-04-28T21:02:10.078Z,11.25
2023-04-28T21:04:38.234Z,11.11
2023-04-28T21:07:06.519Z,11.18
2023-04-28T21:09:35.844Z,11.21
2023-04-28T21:12:04.351Z,11.21
2023-04-28T21:14:35.709Z,11.37
2023-04-28T21:17:04.326Z,11.25
2023-04-28T21:19:34.203Z,11.24
2023-04-28T21:22:02.353Z,11.25
2023-04-28T21:24:30.518Z,11.16
2023-04-28T21:26:59.498Z,11.05
2023-04-28T21:29:28.211Z,11.12
2023-04-28T21:31:56.468Z,11.15
2023-04-28T21:34:24.740Z,11.28
2023-04-28T21:36:54.341Z,11.27
2023-04-28T21:39:22.788Z,11.10
2023-04-28T21:41:50.959Z,11.01
2023-04-28T21:44:19.561Z,11.06
2023-04-28T21:46:47.767Z,10.95
2023-04-28T21:49:16.241Z,10.94
2023-04-28T21:51:45.851Z,10.86
2023-04-28T21:54:15.429Z,10.98
2023-04-28T21:56:43.697Z,11.09
2023-04-28T21:59:12.314Z,11.01
2023-04-28T22:01:41.618Z,11.03
2023-04-28T22:04:10.030Z,11.12
2023-04-28T22:06:38.537Z,11.11
2023-04-28T22:09:07.289Z,11.03
2023-04-28T22:11:36.872Z,11.02
2023-04-28T22:14:05.715Z,11.22
2023-04-28T22:16:33.933Z,11.24
2023-04-28T22:19:02.726Z,11.10
2023-04-28T22:21:32.158Z,10.92
2023-04-28T22:24:00.358Z,11.06
2023-04-28T22:26:31.377Z,11.01
2023-04-28T22:29:02.122Z,11.12
2023-04-28T22:31:30.427Z,10.94
2023-04-28T22:33:58.634Z,10.88
2023-04-28T22:36:27.674Z,10.79
2023-04-28T22:38:55.864Z,10.88
2023-04-28T22:41:24.733Z,10.99
2023-04-28T22:43:53.228Z,10.96
2023-04-28T22:46:23.062Z,11.03
2023-04-28T22:48:51.860Z,11.04
2023-04-28T22:51:20.328Z,10.95
2023-04-28T22:53:48.671Z,11.01
2023-04-28T22:56:16.927Z,10.95
2023-04-28T22:58:45.120Z,11.02
2023-04-28T23:01:13.346Z,11.03
2023-04-28T23:03:43.032Z,10.97
2023-04-28T23:06:11.462Z,11.04
2023-04-28T23:08:39.697Z,11.09
2023-04-28T23:11:07.919Z,10.99
2023-04-28T23:13:36.149Z,11.11
2023-04-28T23:16:04.496Z,10.98
2023-04-28T23:18:33.884Z,10.94
2023-04-28T23:21:03.355Z,10.97
2023-04-28T23:23:32.586Z,11.06
2023-04-28T23:26:01.464Z,10.97
2023-04-28T23:28:29.702Z,10.98
2023-04-28T23:30:57.911Z,10.93
2023-04-28T23:33:26.427Z,10.88
2023-04-28T23:35:54.947Z,10.89
2023-04-28T23:38:25.520Z,10.97
2023-04-28T23:40:53.689Z,11.00
2023-04-28T23:43:22.209Z,10.99
2023-04-28T23:45:50.576Z,11.00
2023-04-28T23:48:18.833Z,10.92
2023-04-28T23:50:47.344Z,10.96
2023-04-28T23:53:15.536Z,11.16
2023-04-28T23:55:45.371Z,11.03
2023-04-28T23:58:13.555Z,11.02
